Terminal Aerodrome Forecast
Issued by NWS

Home | Current Version | Previous Version | Text Only | Print | Product List | Glossary On
Versions: 1 2 3 4 5 6 7 8 9 10 11 12 13 14
000
FTUS43 KBIS 220100 AAA
TAFDIK
TAF AMD
KDIK 220151Z 2202/2224 22006KT P6SM -RA BKN020 OVC028
     FM220400 24005KT 5SM -RASN OVC020
     FM220600 30011KT 1SM -SN BKN008 OVC012
     FM221400 31015G20KT 4SM -SN OVC008
     FM221900 35022G33KT 3/4SM -SN BLSN VV008=

USA.gov is the U.S. government's official web portal to all federal, state and local government web resources and services.